Sarfaq Ittuk — OWDD — position and weather

sailwx.info

Track history (hours):
 
Tides and Currents Weather Stations Pressure Air Temp Water Temp Dewpoint Dewpoint Depression Visibility Wind Speed Wind Dir Waves Ship Positions

Sarfaq Ittuk

Last reported at 2017-Aug-15 20:03 UTC. Time now 2017-Aug-17 03:50 UTC.
Position N 63°26' W 051°31'.

Length 73 m; beam 11.1 m; draft 3.7 m.

Type: Passenger vessel. MMSI: 331000499.

Date/timePositionNaut miles runAvg speedWind from/ knotsBaromVisibWave heightAir tempDewpointWater temp
2017-Aug-15 20:03N 63°26' W 051°31'311.6
2017-Aug-15 19:49N 63°29' W 051°33'1211.8
2017-Aug-15 18:46N 63°41' W 051°38'312.1
2017-Aug-15 18:30N 63°44' W 051°36'611.9
2017-Aug-15 18:00N 63°50' W 051°35'611.3
2017-Aug-15 17:27N 63°56' W 051°35'511.7
2017-Aug-15 17:00N 64°01' W 051°41'611.4
2017-Aug-15 16:30N 64°06' W 051°39'5 9.0
2017-Aug-15 16:00N 64°10' W 051°43'0 0.0
2017-Aug-15 15:30N 64°10' W 051°43'0 0.0
2017-Aug-15 15:00N 64°10' W 051°43'0 0.0
2017-Aug-15 14:30N 64°10' W 051°43'0 0.0
2017-Aug-15 14:00N 64°10' W 051°43'0 0.0
2017-Aug-15 13:30N 64°10' W 051°43'0 0.0
2017-Aug-15 13:00N 64°10' W 051°43'0 0.0
2017-Aug-15 12:30N 64°10' W 051°43'0 0.0
2017-Aug-15 12:00N 64°10' W 051°43'0 0.0
2017-Aug-15 11:30N 64°10' W 051°43'0 0.0
2017-Aug-15 11:00N 64°10' W 051°43'0 0.0
2017-Aug-15 10:30N 64°10' W 051°43'0 0.0
2017-Aug-15 10:00N 64°10' W 051°43'0 0.0
2017-Aug-15 09:30N 64°10' W 051°43'2 4.9
2017-Aug-15 09:00N 64°09' W 051°48'510.9
2017-Aug-15 08:30N 64°06' W 051°58'510.7
2017-Aug-15 08:00N 64°04' W 052°09'510.8
2017-Aug-15 07:31N 64°08' W 052°17'511.0
2017-Aug-15 07:00N 64°12' W 052°23'611.4
2017-Aug-15 06:30N 64°18' W 052°27'611.3
2017-Aug-15 06:00N 64°24' W 052°30'611.4
2017-Aug-15 05:31N 64°29' W 052°33'611.5
2017-Aug-15 05:00N 64°35' W 052°35'611.7
2017-Aug-15 04:30N 64°40' W 052°38'611.4
2017-Aug-15 04:00N 64°46' W 052°40'611.4
2017-Aug-15 03:30N 64°52' W 052°43'611.3
2017-Aug-15 03:00N 64°57' W 052°45'611.3
2017-Aug-15 02:30N 65°03' W 052°48'611.3
2017-Aug-15 02:00N 65°08' W 052°50'611.4
2017-Aug-15 01:30N 65°14' W 052°51'611.7
2017-Aug-15 01:00N 65°20' W 052°51'5 9.8
2017-Aug-15 00:30N 65°25' W 052°54'0 0.0
2017-Aug-15 00:00N 65°25' W 052°54'0 0.0
2017-Aug-14 23:30N 65°25' W 052°54'2 3.2
2017-Aug-14 23:00N 65°26' W 052°52'712.1
2017-Aug-14 22:26N 65°33' W 052°51'14 9.2
2017-Aug-14 20:53N 65°40' W 053°20'512.0
2017-Aug-14 20:30N 65°45' W 053°19'11 6.3
2017-Aug-14 18:49N 65°53' W 053°34'  
2017-Aug-12 14:21N 65°54' W 053°35'8 6.9
2017-Aug-12 13:07N 65°49' W 053°19'26 8.4
2017-Aug-12 10:02N 65°25' W 052°54'0 0.1
2017-Aug-12 09:24N 65°25' W 052°54'0 0.0
2017-Aug-12 08:56N 65°25' W 052°54'9 6.5
2017-Aug-12 07:33N 65°16' W 052°51'4 8.4
2017-Aug-12 07:05N 65°12' W 052°51'2 8.6
2017-Aug-12 06:52N 65°10' W 052°51'3 9.0
2017-Aug-12 06:30N 65°07' W 052°49'510.7
2017-Aug-12 06:00N 65°01' W 052°47'510.7
2017-Aug-12 05:30N 64°56' W 052°45'510.6
2017-Aug-12 05:00N 64°51' W 052°42'510.6
2017-Aug-12 04:30N 64°46' W 052°40'510.4
2017-Aug-12 04:00N 64°41' W 052°38'510.5
2017-Aug-12 03:30N 64°36' W 052°36'510.6
2017-Aug-12 03:00N 64°30' W 052°33'510.9
2017-Aug-12 02:30N 64°25' W 052°31'510.9
2017-Aug-12 02:00N 64°20' W 052°28'511.0
2017-Aug-12 01:30N 64°14' W 052°24'510.7
2017-Aug-12 01:00N 64°09' W 052°20'510.7
2017-Aug-12 00:30N 64°06' W 052°11'5 9.8
2017-Aug-12 00:00N 64°06' W 052°00'510.0
2017-Aug-11 23:30N 64°08' W 051°50'4 7.3
2017-Aug-11 23:00N 64°10' W 051°43'0 0.0
2017-Aug-11 22:30N 64°10' W 051°43'0 0.0
2017-Aug-11 22:01N 64°10' W 051°43'0 0.0
2017-Aug-11 21:30N 64°10' W 051°43'0 0.0
2017-Aug-11 21:01N 64°10' W 051°43'0 0.0
2017-Aug-11 20:30N 64°10' W 051°43'0 0.0
2017-Aug-11 20:01N 64°10' W 051°43'0 0.0
2017-Aug-11 19:30N 64°10' W 051°43'0 0.0
2017-Aug-11 19:01N 64°10' W 051°43'0 0.0
2017-Aug-11 18:30N 64°10' W 051°43'0 0.0
2017-Aug-11 18:00N 64°10' W 051°43'0 0.0
2017-Aug-11 17:30N 64°10' W 051°43'0 0.1
2017-Aug-11 17:00N 64°10' W 051°43'1 2.3
2017-Aug-11 16:30N 64°09' W 051°43'4 8.0
2017-Aug-11 16:00N 64°06' W 051°39'5 9.9
2017-Aug-11 15:30N 64°01' W 051°41'610.1
2017-Aug-11 14:52N 63°55' W 051°33'1011.9
2017-Aug-11 14:00N 63°45' W 051°36'  
2017-Aug-08 20:07N 63°26' W 051°31'312.0
2017-Aug-08 19:53N 63°29' W 051°33'1511.0
2017-Aug-08 18:32N 63°44' W 051°36'012.1
2017-Aug-08 18:30N 63°44' W 051°36'611.9
2017-Aug-08 18:00N 63°50' W 051°35'611.5
2017-Aug-08 17:27N 63°56' W 051°35'511.5
2017-Aug-08 17:00N 64°00' W 051°41'511.0
2017-Aug-08 16:30N 64°06' W 051°39'5 9.5
2017-Aug-08 16:00N 64°10' W 051°43'0 0.0
2017-Aug-08 15:30N 64°10' W 051°43'0 0.0
2017-Aug-08 15:00N 64°10' W 051°43'0 0.0
2017-Aug-08 14:30N 64°10' W 051°43'0 0.0
2017-Aug-08 14:01N 64°10' W 051°43'0 0.0
2017-Aug-08 13:31N 64°10' W 051°43'0 0.0
2017-Aug-08 13:00N 64°10' W 051°43'0 0.0
2017-Aug-08 12:30N 64°10' W 051°43'0 0.0
2017-Aug-08 12:00N 64°10' W 051°43'0 0.0
2017-Aug-08 11:30N 64°10' W 051°43'0 0.0
2017-Aug-08 11:00N 64°10' W 051°43'0 0.0
2017-Aug-08 10:30N 64°10' W 051°43'0 0.0
2017-Aug-08 10:00N 64°10' W 051°43'0 0.0
2017-Aug-08 09:30N 64°10' W 051°43'3 5.6
2017-Aug-08 09:01N 64°09' W 051°48'510.6
2017-Aug-08 08:30N 64°06' W 051°59'510.6
2017-Aug-08 08:00N 64°04' W 052°10'611.2
2017-Aug-08 07:30N 64°08' W 052°18'510.8
2017-Aug-08 07:00N 64°13' W 052°24'510.9
2017-Aug-08 06:31N 64°18' W 052°27'510.9
2017-Aug-08 06:00N 64°24' W 052°30'510.9
2017-Aug-08 05:30N 64°29' W 052°33'510.9
2017-Aug-08 05:00N 64°34' W 052°35'511.0
2017-Aug-08 04:30N 64°40' W 052°37'610.9
2017-Aug-08 04:00N 64°45' W 052°40'611.2
2017-Aug-08 03:30N 64°50' W 052°42'611.7
2017-Aug-08 03:00N 64°56' W 052°45'611.7
2017-Aug-08 02:30N 65°02' W 052°47'611.6
2017-Aug-08 02:01N 65°08' W 052°50'611.6
2017-Aug-08 01:30N 65°13' W 052°51'612.0
2017-Aug-08 01:00N 65°19' W 052°51'510.7
2017-Aug-08 00:30N 65°25' W 052°54'0 0.0
2017-Aug-08 00:00N 65°25' W 052°54'0 0.0
2017-Aug-07 23:30N 65°25' W 052°54'1 2.6
2017-Aug-07 23:00N 65°26' W 052°52'611.1
2017-Aug-07 22:30N 65°31' W 052°51'15 8.5
2017-Aug-07 20:47N 65°40' W 053°20'311.2
2017-Aug-07 20:30N 65°43' W 053°20'6 5.5
2017-Aug-07 19:20N 65°50' W 053°21'3 8.8
2017-Aug-07 18:59N 65°51' W 053°28'611.8
2017-Aug-07 18:30N 65°55' W 053°37'911.5
2017-Aug-07 17:41N 66°04' W 053°48'211.4
2017-Aug-07 17:28N 66°06' W 053°50'  
Track history (hours):
 
Tides and Currents Weather Stations Pressure Air Temp Water Temp Dewpoint Dewpoint Depression Visibility Wind Speed Wind Dir Waves Ship Positions

Sarfaq Ittuk

Last reported at 2017-Aug-15 20:03 UTC. Time now 2017-Aug-17 03:50 UTC.
Position N 63°26' W 051°31'.

Length 73 m; beam 11.1 m; draft 3.7 m.

Type: Passenger vessel. MMSI: 331000499.

Date/timePositionNaut miles runAvg speedWind from/ knotsBaromVisibWave heightAir tempDewpointWater temp
2017-Aug-15 20:03N 63°26' W 051°31'311.6
2017-Aug-15 19:49N 63°29' W 051°33'1211.8
2017-Aug-15 18:46N 63°41' W 051°38'312.1
2017-Aug-15 18:30N 63°44' W 051°36'611.9
2017-Aug-15 18:00N 63°50' W 051°35'611.3
2017-Aug-15 17:27N 63°56' W 051°35'511.7
2017-Aug-15 17:00N 64°01' W 051°41'611.4
2017-Aug-15 16:30N 64°06' W 051°39'5 9.0
2017-Aug-15 16:00N 64°10' W 051°43'0 0.0
2017-Aug-15 15:30N 64°10' W 051°43'0 0.0
2017-Aug-15 15:00N 64°10' W 051°43'0 0.0
2017-Aug-15 14:30N 64°10' W 051°43'0 0.0
2017-Aug-15 14:00N 64°10' W 051°43'0 0.0
2017-Aug-15 13:30N 64°10' W 051°43'0 0.0
2017-Aug-15 13:00N 64°10' W 051°43'0 0.0
2017-Aug-15 12:30N 64°10' W 051°43'0 0.0
2017-Aug-15 12:00N 64°10' W 051°43'0 0.0
2017-Aug-15 11:30N 64°10' W 051°43'0 0.0
2017-Aug-15 11:00N 64°10' W 051°43'0 0.0
2017-Aug-15 10:30N 64°10' W 051°43'0 0.0
2017-Aug-15 10:00N 64°10' W 051°43'0 0.0
2017-Aug-15 09:30N 64°10' W 051°43'2 4.9
2017-Aug-15 09:00N 64°09' W 051°48'510.9
2017-Aug-15 08:30N 64°06' W 051°58'510.7
2017-Aug-15 08:00N 64°04' W 052°09'510.8
2017-Aug-15 07:31N 64°08' W 052°17'511.0
2017-Aug-15 07:00N 64°12' W 052°23'611.4
2017-Aug-15 06:30N 64°18' W 052°27'611.3
2017-Aug-15 06:00N 64°24' W 052°30'611.4
2017-Aug-15 05:31N 64°29' W 052°33'611.5
2017-Aug-15 05:00N 64°35' W 052°35'611.7
2017-Aug-15 04:30N 64°40' W 052°38'611.4
2017-Aug-15 04:00N 64°46' W 052°40'611.4
2017-Aug-15 03:30N 64°52' W 052°43'611.3
2017-Aug-15 03:00N 64°57' W 052°45'611.3
2017-Aug-15 02:30N 65°03' W 052°48'611.3
2017-Aug-15 02:00N 65°08' W 052°50'611.4
2017-Aug-15 01:30N 65°14' W 052°51'611.7
2017-Aug-15 01:00N 65°20' W 052°51'5 9.8
2017-Aug-15 00:30N 65°25' W 052°54'0 0.0
2017-Aug-15 00:00N 65°25' W 052°54'0 0.0
2017-Aug-14 23:30N 65°25' W 052°54'2 3.2
2017-Aug-14 23:00N 65°26' W 052°52'712.1
2017-Aug-14 22:26N 65°33' W 052°51'14 9.2
2017-Aug-14 20:53N 65°40' W 053°20'512.0
2017-Aug-14 20:30N 65°45' W 053°19'11 6.3
2017-Aug-14 18:49N 65°53' W 053°34'  
2017-Aug-12 14:21N 65°54' W 053°35'8 6.9
2017-Aug-12 13:07N 65°49' W 053°19'26 8.4
2017-Aug-12 10:02N 65°25' W 052°54'0 0.1
2017-Aug-12 09:24N 65°25' W 052°54'0 0.0
2017-Aug-12 08:56N 65°25' W 052°54'9 6.5
2017-Aug-12 07:33N 65°16' W 052°51'4 8.4
2017-Aug-12 07:05N 65°12' W 052°51'2 8.6
2017-Aug-12 06:52N 65°10' W 052°51'3 9.0
2017-Aug-12 06:30N 65°07' W 052°49'510.7
2017-Aug-12 06:00N 65°01' W 052°47'510.7
2017-Aug-12 05:30N 64°56' W 052°45'510.6
2017-Aug-12 05:00N 64°51' W 052°42'510.6
2017-Aug-12 04:30N 64°46' W 052°40'510.4
2017-Aug-12 04:00N 64°41' W 052°38'510.5
2017-Aug-12 03:30N 64°36' W 052°36'510.6
2017-Aug-12 03:00N 64°30' W 052°33'510.9
2017-Aug-12 02:30N 64°25' W 052°31'510.9
2017-Aug-12 02:00N 64°20' W 052°28'511.0
2017-Aug-12 01:30N 64°14' W 052°24'510.7
2017-Aug-12 01:00N 64°09' W 052°20'510.7
2017-Aug-12 00:30N 64°06' W 052°11'5 9.8
2017-Aug-12 00:00N 64°06' W 052°00'510.0
2017-Aug-11 23:30N 64°08' W 051°50'4 7.3
2017-Aug-11 23:00N 64°10' W 051°43'0 0.0
2017-Aug-11 22:30N 64°10' W 051°43'0 0.0
2017-Aug-11 22:01N 64°10' W 051°43'0 0.0
2017-Aug-11 21:30N 64°10' W 051°43'0 0.0
2017-Aug-11 21:01N 64°10' W 051°43'0 0.0
2017-Aug-11 20:30N 64°10' W 051°43'0 0.0
2017-Aug-11 20:01N 64°10' W 051°43'0 0.0
2017-Aug-11 19:30N 64°10' W 051°43'0 0.0
2017-Aug-11 19:01N 64°10' W 051°43'0 0.0
2017-Aug-11 18:30N 64°10' W 051°43'0 0.0
2017-Aug-11 18:00N 64°10' W 051°43'0 0.0
2017-Aug-11 17:30N 64°10' W 051°43'0 0.1
2017-Aug-11 17:00N 64°10' W 051°43'1 2.3
2017-Aug-11 16:30N 64°09' W 051°43'4 8.0
2017-Aug-11 16:00N 64°06' W 051°39'5 9.9
2017-Aug-11 15:30N 64°01' W 051°41'610.1
2017-Aug-11 14:52N 63°55' W 051°33'1011.9
2017-Aug-11 14:00N 63°45' W 051°36'  
2017-Aug-08 20:07N 63°26' W 051°31'312.0
2017-Aug-08 19:53N 63°29' W 051°33'1511.0
2017-Aug-08 18:32N 63°44' W 051°36'012.1
2017-Aug-08 18:30N 63°44' W 051°36'611.9
2017-Aug-08 18:00N 63°50' W 051°35'611.5
2017-Aug-08 17:27N 63°56' W 051°35'511.5
2017-Aug-08 17:00N 64°00' W 051°41'511.0
2017-Aug-08 16:30N 64°06' W 051°39'5 9.5
2017-Aug-08 16:00N 64°10' W 051°43'0 0.0
2017-Aug-08 15:30N 64°10' W 051°43'0 0.0
2017-Aug-08 15:00N 64°10' W 051°43'0 0.0
2017-Aug-08 14:30N 64°10' W 051°43'0 0.0
2017-Aug-08 14:01N 64°10' W 051°43'0 0.0
2017-Aug-08 13:31N 64°10' W 051°43'0 0.0
2017-Aug-08 13:00N 64°10' W 051°43'0 0.0
2017-Aug-08 12:30N 64°10' W 051°43'0 0.0
2017-Aug-08 12:00N 64°10' W 051°43'0 0.0
2017-Aug-08 11:30N 64°10' W 051°43'0 0.0
2017-Aug-08 11:00N 64°10' W 051°43'0 0.0
2017-Aug-08 10:30N 64°10' W 051°43'0 0.0
2017-Aug-08 10:00N 64°10' W 051°43'0 0.0
2017-Aug-08 09:30N 64°10' W 051°43'3 5.6
2017-Aug-08 09:01N 64°09' W 051°48'510.6
2017-Aug-08 08:30N 64°06' W 051°59'510.6
2017-Aug-08 08:00N 64°04' W 052°10'611.2
2017-Aug-08 07:30N 64°08' W 052°18'510.8
2017-Aug-08 07:00N 64°13' W 052°24'510.9
2017-Aug-08 06:31N 64°18' W 052°27'510.9
2017-Aug-08 06:00N 64°24' W 052°30'510.9
2017-Aug-08 05:30N 64°29' W 052°33'510.9
2017-Aug-08 05:00N 64°34' W 052°35'511.0
2017-Aug-08 04:30N 64°40' W 052°37'610.9
2017-Aug-08 04:00N 64°45' W 052°40'611.2
2017-Aug-08 03:30N 64°50' W 052°42'611.7
2017-Aug-08 03:00N 64°56' W 052°45'611.7
2017-Aug-08 02:30N 65°02' W 052°47'611.6
2017-Aug-08 02:01N 65°08' W 052°50'611.6
2017-Aug-08 01:30N 65°13' W 052°51'612.0
2017-Aug-08 01:00N 65°19' W 052°51'510.7
2017-Aug-08 00:30N 65°25' W 052°54'0 0.0
2017-Aug-08 00:00N 65°25' W 052°54'0 0.0
2017-Aug-07 23:30N 65°25' W 052°54'1 2.6
2017-Aug-07 23:00N 65°26' W 052°52'611.1
2017-Aug-07 22:30N 65°31' W 052°51'15 8.5
2017-Aug-07 20:47N 65°40' W 053°20'311.2
2017-Aug-07 20:30N 65°43' W 053°20'6 5.5
2017-Aug-07 19:20N 65°50' W 053°21'3 8.8
2017-Aug-07 18:59N 65°51' W 053°28'611.8
2017-Aug-07 18:30N 65°55' W 053°37'911.5
2017-Aug-07 17:41N 66°04' W 053°48'211.4
2017-Aug-07 17:28N 66°06' W 053°50'  

Dump ship's entire track history